Flight Track Log - Related Links

Times and Time Zones

All times are in EDT time to prevent confusion due to time zone crossing. See the RPA3253 flight status page for this flight to view local times or setup timezone preferences in your user account.

Time Position Orientation Groundspeed Altitude Reporting Facility
EDT Latitude Longitude Course Direction KTS MPH feet Rate Location/Type
Tue 10:37:55 PM 35.1892 -80.9508 246° West 161 185 1,600  Level Atlanta Center
Tue 10:38:31 PM 35.1619 -80.9494 178° South 168 193 2,300 1,732 Climbing Atlanta Center
Tue 10:39:32 PM 35.1089 -80.9947 215° Southwest 265 305 4,400 2,532 Climbing Atlanta Center
Tue 10:40:00 PM 35.1976 -81.2463 199° South  Level FlightAware Approximate
Tue 10:40:20 PM 35.1317 -81.0775 289° West 251 289 6,900  Level Atlanta Center
Tue 10:41:00 PM 35.0970 -81.2799 192° South  Level FlightAware Approximate
Tue 10:41:20 PM 35.1500 -81.1481 288° West 267 307 9,500  Level Atlanta Center
Tue 10:42:00 PM 35.0535 -81.3877 251° West  Level FlightAware Approximate
Tue 10:42:20 PM 35.1439 -81.2447 266° West 307 353 12,200  Level Atlanta Center
Tue 10:43:00 PM 35.0120 -81.5047 246° West  Level FlightAware Approximate
Tue 10:43:20 PM 35.1044 -81.3400 243° Southwest 340 391 14,100  Level Atlanta Center
Tue 10:44:20 PM 35.0586 -81.4481 243° Southwest 346 398 15,500 1,800 Climbing Atlanta Center
Tue 10:45:20 PM 35.0131 -81.5586 243° Southwest 361 415 17,700 1,950 Climbing Atlanta Center
Tue 10:46:20 PM 34.9736 -81.6739 247° West 367 422 19,400 1,600 Climbing Atlanta Center
Tue 10:47:20 PM 34.9403 -81.7836 250° West 382 440 20,900 1,550 Climbing Atlanta Center
Tue 10:48:20 PM 34.8817 -81.8967 238° Southwest 389 448 22,500 1,600 Climbing Atlanta Center
Tue 10:49:20 PM 34.8189 -82.0069 235° Southwest 398 458 24,100 1,400 Climbing Atlanta Center
Tue 10:50:20 PM 34.7497 -82.1250 235° Southwest 414 476 25,300 1,250 Climbing Atlanta Center
Tue 10:51:20 PM 34.6828 -82.2453 236° Southwest 426 490 26,600 1,250 Climbing Atlanta Center
Tue 10:52:20 PM 34.6136 -82.3681 236° Southwest 438 504 27,800 1,050 Climbing Atlanta Center
Tue 10:53:20 PM 34.5422 -82.4931 235° Southwest 443 510 28,700 1,050 Climbing Atlanta Center
Tue 10:54:20 PM 34.4561 -82.6306 233° Southwest 460 529 29,900 950 Climbing Atlanta Center
Tue 10:55:20 PM 34.3906 -82.7475 236° Southwest 465 535 30,600 850 Climbing Atlanta Center
Tue 10:56:20 PM 34.3167 -82.8769 235° Southwest 475 547 31,600 700 Climbing Atlanta Center
Tue 10:57:20 PM 34.2428 -83.0061 235° Southwest 469 540 32,000 200 Climbing Atlanta Center
Tue 10:58:20 PM 34.1708 -83.1325 235° Southwest 474 545 32,000  Level Atlanta Center
Tue 10:59:20 PM 34.0944 -83.2611 234° Southwest 468 539 32,000  Level Atlanta Center
Tue 11:00:20 PM 34.0200 -83.3872 235° Southwest 468 539 32,000  Level Atlanta Center
Tue 11:01:20 PM 33.9372 -83.5256 234° Southwest 470 541 32,000  Level Atlanta Center
Tue 11:02:20 PM 33.8606 -83.6536 234° Southwest 470 541 32,000  Level Atlanta Center
Tue 11:03:20 PM 33.7856 -83.7814 235° Southwest 475 547 32,000  Level Atlanta Center
Tue 11:04:20 PM 33.7086 -83.9089 234° Southwest 475 547 32,000  Level Atlanta Center
Tue 11:05:20 PM 33.6336 -84.0364 235° Southwest 475 547 32,000  Level Atlanta Center
Tue 11:06:20 PM 33.5561 -84.1658 234° Southwest 475 547 32,000  Level Atlanta Center
Tue 11:07:20 PM 33.4872 -84.2806 234° Southwest 475 547 32,000  Level Atlanta Center
Tue 11:08:20 PM 33.4117 -84.4072 234° Southwest 475 547 32,000  Level Atlanta Center
Tue 11:09:20 PM 33.3361 -84.5336 234° Southwest 475 547 32,000  Level Atlanta Center
Tue 11:10:20 PM 33.2583 -84.6625 234° Southwest 475 547 32,000  Level Atlanta Center
Tue 11:11:20 PM 33.1825 -84.7883 234° Southwest 475 547 32,000  Level Atlanta Center
Tue 11:12:20 PM 33.0961 -84.9264 233° Southwest 475 547 32,000  Level Atlanta Center
Tue 11:13:20 PM 33.0200 -85.0544 235° Southwest 475 547 32,000  Level Atlanta Center
Tue 11:14:20 PM 32.9394 -85.1750 231° Southwest 475 547 32,000  Level Atlanta Center
Tue 11:15:20 PM 32.8631 -85.3000 234° Southwest 469 540 32,000  Level Atlanta Center
Tue 11:16:20 PM 32.7844 -85.4250 233° Southwest 474 545 32,000  Level Atlanta Center
Tue 11:17:20 PM 32.7081 -85.5522 235° Southwest 474 545 32,000  Level Atlanta Center
Tue 11:18:20 PM 32.6292 -85.6767 233° Southwest 474 545 32,000  Level Atlanta Center
Tue 11:19:20 PM 32.5500 -85.8033 233° Southwest 474 545 32,000  Level Atlanta Center
Tue 11:20:20 PM 32.4775 -85.9175 233° Southwest 484 557 32,000  Level Atlanta Center
Tue 11:21:20 PM 32.3983 -86.0414 233° Southwest 484 557 32,000  Level Atlanta Center
Tue 11:22:20 PM 32.3147 -86.1697 232° Southwest 484 557 32,000  Level Atlanta Center
Tue 11:23:20 PM 32.2289 -86.3050 233° Southwest 484 557 32,000  Level Atlanta Center
Tue 11:24:20 PM 32.1533 -86.4308 235° Southwest 472 543 32,000  Level Atlanta Center
Tue 11:25:20 PM 32.0656 -86.5461 228° Southwest 477 549 32,000  Level Atlanta Center
Tue 11:26:20 PM 31.9797 -86.6661 230° Southwest 477 549 32,000  Level Atlanta Center
Tue 11:27:20 PM 31.8894 -86.7833 228° Southwest 486 559 32,000  Level Atlanta Center
Tue 11:28:20 PM 31.8117 -86.8933 230° Southwest 491 565 32,000  Level Atlanta Center
Tue 11:29:20 PM 31.7256 -87.0103 229° Southwest 491 565 32,000  Level Atlanta Center
Tue 11:30:20 PM 31.6456 -87.1272 231° Southwest 486 559 32,000  Level Atlanta Center
Tue 11:30:45 PM 31.5953 -87.1875 226° Southwest 478 550 32,000  Level Houston Center
Tue 11:31:46 PM 31.5069 -87.3056 229° Southwest 481 554 32,000  Level Houston Center
Tue 11:32:47 PM 31.4203 -87.4242 229° Southwest 482 555 32,000  Level Houston Center
Tue 11:33:47 PM 31.3328 -87.5439 229° Southwest 483 556 32,000  Level Houston Center
Tue 11:34:48 PM 31.2456 -87.6625 229° Southwest 481 554 32,000  Level Houston Center
Tue 11:35:49 PM 31.1686 -87.7669 229° Southwest 479 551 32,000  Level Houston Center
Tue 11:36:50 PM 31.0811 -87.8847 229° Southwest 479 551 32,000  Level Houston Center
Tue 11:37:51 PM 30.9742 -88.0250 228° Southwest 482 555 32,000  Level Houston Center
Tue 11:38:51 PM 30.8856 -88.1425 229° Southwest 483 556 32,000  Level Houston Center
Tue 11:39:52 PM 30.8119 -88.2719 237° Southwest 482 555 32,000 -689 Level Houston Center
Tue 11:40:53 PM 30.7564 -88.4117 245° Southwest 477 549 30,600 -1,721 Descending Houston Center
Tue 11:41:54 PM 30.7008 -88.5483 245° Southwest 475 547 28,500 -2,016 Descending Houston Center
Tue 11:42:55 PM 30.6475 -88.6789 245° Southwest 455 524 26,500 -1,934 Descending Houston Center
Tue 11:43:55 PM 30.5956 -88.8069 245° Southwest 443 510 24,600 -1,884 Descending Houston Center
Tue 11:44:56 PM 30.5433 -88.9319 244° Southwest 435 501 22,700 -1,869 Descending Houston Center
Tue 11:45:57 PM 30.4964 -89.0533 246° West 418 481 20,800 -1,835 Descending Houston Center
Tue 11:46:57 PM 30.4486 -89.1714 245° Southwest 407 468 19,000 -1,820 Descending Houston Center
Tue 11:47:26 PM 30.4219 -89.2353 244° Southwest 399 459 18,100 -1,574 Descending Houston Center
Tue 11:47:58 PM 30.4008 -89.2858 244° Southwest 400 460 17,400 -1,644 Descending Houston Center
Tue 11:48:39 PM 30.3664 -89.3731 245° Southwest 381 438 16,100 -1,672 Descending Houston Center
Tue 11:48:59 PM 30.3550 -89.3958 240° Southwest 390 449 15,700 -1,672 Descending Houston Center
Tue 11:49:40 PM 30.3203 -89.4814 245° Southwest 370 426 14,400 -1,700 Descending Houston Center
Tue 11:49:59 PM 30.3106 -89.5031 243° Southwest 375 432 14,000 -1,700 Descending Houston Center
Tue 11:50:40 PM 30.2761 -89.5869 245° Southwest 366 421 12,700 -1,574 Descending Houston Center
Tue 11:51:00 PM 30.2653 -89.6092 241° Southwest 367 422 12,400 -1,475 Descending Houston Center
Tue 11:51:41 PM 30.2336 -89.6875 245° Southwest 356 410 11,200 -1,574 Descending Houston Center
Tue 11:52:01 PM 30.2225 -89.7119 242° Southwest 353 406 10,800 -1,500 Descending Houston Center
Tue 11:52:41 PM 30.1911 -89.7883 245° Southwest 317 365 9,700 -1,400 Descending Houston Center
Tue 11:53:01 PM 30.1833 -89.8058 243° Southwest 326 375 9,400 -1,672 Descending Houston Center
Tue 11:53:42 PM 30.1542 -89.8764 244° Southwest 297 342 8,000 -1,770 Descending Houston Center
Tue 11:54:02 PM 30.1517 -89.8958 262° West 306 352 7,600 -1,574 Descending Houston Center
Tue 11:54:43 PM 30.1428 -89.9708 262° West 292 336 6,400 -1,574 Descending Houston Center
Tue 11:55:03 PM 30.1400 -89.9897 260° West 295 339 6,000 -1,667 Descending Houston Center
Tue 11:55:55 PM 30.1275 -90.0819 261° West 284 327 4,400 -1,593 Descending Houston Center
Tue 11:56:56 PM 30.1156 -90.1667 261° West 274 315 3,000 -689 Descending Houston Center
Tue 11:57:57 PM 30.1014 -90.2536 259° West 269 310 3,000  Level Houston Center
Tue 11:58:57 PM 30.0911 -90.3308 261° West 232 267 3,000 -104 Level Houston Center
Tue 11:59:52 PM 30.0697 -90.3822 244° Southwest 191 220 2,800 -218 Descending Houston Center

Login

Don't have an account? Register now (free) for customized features, flight alerts, and more!